Time;durP1;ratioP1;P1;durP2;ratioP2;P2;SDS_P1;SDS_P2;PMS_P1;PMS_P2;Temp;Humidity;BMP_temperature;BMP_pressure;BME280_temperature;BME280_humidity;BME280_pressure;Samples;Min_cycle;Max_cycle;Signal;HPM_P1;HPM_P2
2022/08/04 00:00:09;;;;;;;1.43;1.33;;;22.80;96.60;;;;;;4993841;28;20441;-80
2022/08/04 00:03:06;;;;;;;1.20;1.10;;;22.80;96.30;;;;;;4998035;28;20494;-82
2022/08/04 00:06:10;;;;;;;2.57;1.43;;;22.70;97.00;;;;;;4992359;28;20450;-81
2022/08/04 00:08:55;;;;;;;1.27;0.90;;;22.70;95.50;;;;;;4979959;28;20452;-81
2022/08/04 00:11:22;;;;;;;9.53;1.87;;;22.70;96.90;;;;;;5010270;28;20907;-81
2022/08/04 00:13:56;;;;;;;2.90;1.40;;;22.70;97.40;;;;;;5010527;28;20952;-78
2022/08/04 00:16:23;;;;;;;1.63;1.37;;;22.70;96.50;;;;;;4991703;28;20483;-78
2022/08/04 00:19:03;;;;;;;1.83;1.17;;;22.70;96.90;;;;;;5009828;28;20945;-78
2022/08/04 00:21:34;;;;;;;3.83;1.27;;;22.80;95.90;;;;;;4991881;28;20426;-78
2022/08/04 00:24:01;;;;;;;2.20;1.30;;;22.70;95.60;;;;;;4975520;28;20932;-78
2022/08/04 00:26:27;;;;;;;2.10;1.27;;;22.70;95.50;;;;;;4995505;28;20433;-78
2022/08/04 00:28:53;;;;;;;1.67;1.40;;;22.70;96.20;;;;;;5013375;28;20801;-78
2022/08/04 00:31:20;;;;;;;2.07;1.23;;;22.80;92.90;;;;;;4996206;28;20185;-82
2022/08/04 00:33:47;;;;;;;2.70;1.30;;;22.80;92.40;;;;;;4999317;28;20948;-82
2022/08/04 00:36:14;;;;;;;2.80;1.60;;;22.90;90.90;;;;;;5013860;28;20420;-78
2022/08/04 00:38:43;;;;;;;1.57;1.00;;;23.00;91.50;;;;;;4996268;28;20864;-82
2022/08/04 00:41:28;;;;;;;2.30;1.57;;;23.10;89.80;;;;;;4980365;28;20942;-81
2022/08/04 00:44:28;;;;;;;1.50;1.20;;;23.30;88.50;;;;;;5013627;28;20474;-77
2022/08/04 00:47:21;;;;;;;1.60;1.30;;;23.20;89.60;;;;;;4982100;28;20510;-78
2022/08/04 00:50:08;;;;;;;1.73;1.63;;;23.10;96.00;;;;;;5012731;28;20446;-78
2022/08/04 00:52:46;;;;;;;5.27;1.80;;;22.90;99.20;;;;;;4995065;28;20528;-78
2022/08/04 00:55:14;;;;;;;1.60;1.50;;;22.70;99.90;;;;;;5012591;28;20469;-78
2022/08/04 00:57:59;;;;;;;4.43;1.53;;;22.60;99.40;;;;;;4994949;28;20436;-77
2022/08/04 01:00:25;;;;;;;1.40;1.23;;;22.50;98.20;;;;;;4995353;28;20451;-81
2022/08/04 01:03:09;;;;;;;3.43;1.43;;;22.40;97.50;;;;;;4979524;28;20519;-81
2022/08/04 01:05:54;;;;;;;2.17;1.40;;;22.40;97.00;;;;;;5013903;28;20520;-82
2022/08/04 01:08:41;;;;;;;5.77;1.27;;;22.40;96.50;;;;;;4997087;28;20556;-82
2022/08/04 01:11:07;;;;;;;2.47;1.60;;;22.40;95.70;;;;;;5014196;28;20401;-81
2022/08/04 01:14:13;;;;;;;1.50;1.37;;;22.40;96.30;;;;;;5014295;28;20425;-82
2022/08/04 01:16:49;;;;;;;5.57;1.37;;;22.40;96.10;;;;;;5014535;28;20259;-80
2022/08/04 01:19:37;;;;;;;2.80;1.20;;;22.40;95.90;;;;;;5012929;28;20439;-78
2022/08/04 01:22:32;;;;;;;2.33;1.57;;;22.40;95.00;;;;;;5013649;28;20463;-80
2022/08/04 01:25:29;;;;;;;4.73;1.73;;;22.40;95.40;;;;;;4960802;28;20435;-79
2022/08/04 01:28:29;;;;;;;6.23;1.30;;;22.40;95.70;;;;;;4996446;28;20415;-80
2022/08/04 01:31:08;;;;;;;4.90;1.67;;;22.40;96.90;;;;;;4996799;28;20412;-79
2022/08/04 01:33:36;;;;;;;5.37;1.90;;;22.30;98.20;;;;;;5014632;28;20491;-80
2022/08/04 01:36:05;;;;;;;1.40;1.30;;;22.20;98.70;;;;;;4979631;28;20430;-79
2022/08/04 01:38:35;;;;;;;2.43;1.60;;;22.20;99.10;;;;;;4994506;28;20445;-80
2022/08/04 01:41:11;;;;;;;2.03;1.37;;;22.00;99.40;;;;;;5012932;28;20455;-80
2022/08/04 01:43:42;;;;;;;3.10;1.40;;;22.00;98.80;;;;;;4995846;28;20546;-79
2022/08/04 01:46:14;;;;;;;1.70;1.23;;;21.90;99.90;;;;;;4995453;28;20427;-80
2022/08/04 01:48:45;;;;;;;3.43;1.57;;;21.90;98.20;;;;;;4995345;28;20496;-79
2022/08/04 01:51:11;;;;;;;2.60;1.30;;;21.90;98.90;;;;;;4995335;28;20416;-79
2022/08/04 01:53:39;;;;;;;2.23;1.40;;;21.80;99.50;;;;;;4979270;28;20428;-80
2022/08/04 01:56:08;;;;;;;2.53;1.10;;;21.70;99.30;;;;;;4995226;28;20438;-80
2022/08/04 01:58:36;;;;;;;5.80;1.53;;;21.70;99.90;;;;;;4995245;28;20465;-80
2022/08/04 02:01:05;;;;;;;2.73;1.17;;;21.70;99.90;;;;;;4979179;28;20433;-79
2022/08/04 02:03:32;;;;;;;1.30;1.07;;;21.60;99.50;;;;;;4995325;28;20506;-81
2022/08/04 02:06:15;;;;;;;4.43;1.33;;;21.60;99.80;;;;;;4978814;28;20443;-80
2022/08/04 02:08:53;;;;;;;3.63;1.30;;;21.70;97.40;;;;;;5012741;28;20441;-79
2022/08/04 02:11:22;;;;;;;1.67;1.30;;;21.70;97.30;;;;;;4994860;28;20515;-80
2022/08/04 02:14:04;;;;;;;1.57;1.47;;;21.70;97.70;;;;;;5012569;28;20452;-80
2022/08/04 02:16:48;;;;;;;1.33;1.03;;;21.80;97.30;;;;;;5012103;28;20489;-81
2022/08/04 02:19:41;;;;;;;1.80;1.27;;;21.70;97.50;;;;;;4993863;28;20467;-81
2022/08/04 02:22:11;;;;;;;1.50;1.07;;;21.70;98.40;;;;;;5011652;28;20525;-80
2022/08/04 02:24:45;;;;;;;1.87;1.43;;;21.90;94.30;;;;;;4978243;28;20431;-81
2022/08/04 02:27:13;;;;;;;1.73;1.20;;;22.20;91.90;;;;;;4993546;28;20983;-81
2022/08/04 02:29:53;;;;;;;1.20;1.10;;;22.50;91.10;;;;;;4993543;28;20954;-81
2022/08/04 02:32:27;;;;;;;1.43;1.33;;;22.60;91.60;;;;;;4993538;28;20464;-81
2022/08/04 02:34:58;;;;;;;1.40;1.30;;;22.50;92.10;;;;;;5010978;28;20429;-81
2022/08/04 02:37:25;;;;;;;2.60;1.60;;;22.50;91.60;;;;;;4993447;28;20432;-81
2022/08/04 02:39:52;;;;;;;1.63;1.53;;;22.50;92.50;;;;;;4976615;28;21077;-80
2022/08/04 02:42:19;;;;;;;2.70;1.73;;;22.40;93.00;;;;;;4976535;28;20468;-82
2022/08/04 02:44:50;;;;;;;1.10;1.00;;;22.30;93.90;;;;;;4993155;28;20428;-83
2022/08/04 02:47:20;;;;;;;1.73;1.33;;;22.20;94.80;;;;;;4992621;28;20413;-82
2022/08/04 02:49:48;;;;;;;1.13;1.03;;;22.20;94.10;;;;;;4976532;28;20923;-82
2022/08/04 02:52:15;;;;;;;2.40;0.87;;;22.30;91.60;;;;;;4992792;28;20466;-79
2022/08/04 02:54:43;;;;;;;1.57;1.20;;;22.40;91.30;;;;;;4993676;28;20426;-81
2022/08/04 02:57:11;;;;;;;1.67;1.23;;;22.50;90.80;;;;;;4992554;28;20925;-78
2022/08/04 03:00:10;;;;;;;2.50;1.40;;;22.50;91.60;;;;;;5010061;28;20543;-80
2022/08/04 03:02:46;;;;;;;2.30;1.00;;;22.40;92.60;;;;;;5010137;28;20488;-80
2022/08/04 03:05:26;;;;;;;2.47;1.80;;;22.30;93.10;;;;;;4992334;28;20456;-80
2022/08/04 03:08:11;;;;;;;6.60;1.37;;;22.20;94.40;;;;;;4992350;28;20483;-79
2022/08/04 03:10:51;;;;;;;3.00;1.60;;;22.20;95.00;;;;;;4992533;28;20452;-81
2022/08/04 03:13:41;;;;;;;3.70;2.17;;;22.00;99.20;;;;;;4992659;28;20424;-78
2022/08/04 03:16:09;;;;;;;6.03;2.20;;;21.80;99.90;;;;;;4991906;28;20461;-78
2022/08/04 03:18:59;;;;;;;4.23;2.23;;;21.60;99.90;;;;;;5009576;28;20450;-78
2022/08/04 03:21:31;;;;;;;2.77;2.53;;;21.50;99.90;;;;;;5010635;28;20429;-78
2022/08/04 03:24:25;;;;;;;2.57;2.37;;;21.40;99.90;;;;;;5009818;28;20829;-78
2022/08/04 03:27:16;;;;;;;2.40;2.20;;;21.30;99.90;;;;;;5009399;28;20978;-77
2022/08/04 03:30:12;;;;;;;5.27;2.67;;;21.20;99.90;;;;;;5001045;28;20449;-77
2022/08/04 03:33:15;;;;;;;4.60;2.43;;;21.10;99.90;;;;;;4994384;28;20462;-82
2022/08/04 03:36:09;;;;;;;3.70;2.47;;;21.00;99.90;;;;;;4996119;28;20429;-81
2022/08/04 03:38:50;;;;;;;2.10;2.00;;;20.90;99.90;;;;;;4995145;28;20448;-82
2022/08/04 03:41:43;;;;;;;4.10;2.07;;;20.80;99.90;;;;;;4994993;28;20428;-78
2022/08/04 03:44:33;;;;;;;5.93;2.83;;;20.70;99.90;;;;;;5009356;28;20427;-78
2022/08/04 03:47:27;;;;;;;2.33;2.13;;;20.60;99.90;;;;;;5010986;28;20435;-79
2022/08/04 03:50:17;;;;;;;3.70;2.30;;;20.50;99.90;;;;;;5009488;28;20427;-79
2022/08/04 03:53:15;;;;;;;4.47;2.37;;;20.40;99.90;;;;;;5009562;28;21265;-78
2022/08/04 03:56:16;;;;;;;5.10;2.50;;;20.40;99.90;;;;;;4984835;28;20581;-79
2022/08/04 03:59:07;;;;;;;2.97;2.73;;;20.30;99.90;;;;;;5009450;28;20883;-79
2022/08/04 04:01:50;;;;;;;2.70;2.50;;;20.30;99.90;;;;;;5012114;28;20515;-79
2022/08/04 04:04:35;;;;;;;4.23;2.60;;;20.20;99.90;;;;;;5011808;28;20432;-79
2022/08/04 04:07:19;;;;;;;2.83;2.53;;;20.20;99.90;;;;;;5011534;28;21051;-78
2022/08/04 04:09:56;;;;;;;3.30;2.90;;;20.20;99.90;;;;;;5011299;28;20434;-79
2022/08/04 04:12:33;;;;;;;12.40;8.70;;;20.20;99.90;;;;;;4993755;28;20846;-78
2022/08/04 04:15:13;;;;;;;2.93;2.63;;;20.20;99.90;;;;;;5011309;28;20408;-78
2022/08/04 04:18:12;;;;;;;3.87;2.63;;;20.20;99.90;;;;;;5011370;28;20400;-78
2022/08/04 04:20:43;;;;;;;2.80;2.47;;;20.10;99.90;;;;;;4993326;28;20408;-78
2022/08/04 04:23:38;;;;;;;7.60;5.13;;;20.10;99.90;;;;;;4993465;28;20834;-78
2022/08/04 04:26:23;;;;;;;37.20;25.63;;;20.00;99.90;;;;;;5011087;28;20416;-78
2022/08/04 04:29:21;;;;;;;3.60;3.30;;;20.00;99.90;;;;;;4993440;28;20436;-78
2022/08/04 04:31:53;;;;;;;2.63;2.43;;;20.00;99.90;;;;;;4973090;28;20443;-78
2022/08/04 04:34:46;;;;;;;2.80;2.30;;;20.10;99.90;;;;;;5011396;28;20512;-78
2022/08/04 04:37:33;;;;;;;2.40;2.20;;;20.00;99.90;;;;;;4993140;28;20851;-78
2022/08/04 04:40:23;;;;;;;2.50;2.30;;;20.00;99.90;;;;;;5010983;28;20804;-78
2022/08/04 04:43:16;;;;;;;7.97;2.80;;;20.00;99.90;;;;;;5010906;28;20546;-78
2022/08/04 04:45:42;;;;;;;4.63;3.70;;;20.00;99.90;;;;;;4992768;28;20428;-78
2022/08/04 04:48:21;;;;;;;9.10;5.10;;;20.00;99.90;;;;;;4992844;28;20419;-78
2022/08/04 04:51:05;;;;;;;11.63;8.90;;;20.00;99.90;;;;;;4993610;28;20543;-78
2022/08/04 04:53:33;;;;;;;8.50;6.67;;;19.90;99.90;;;;;;5011161;28;20410;-78
2022/08/04 04:56:16;;;;;;;8.10;6.50;;;19.90;99.90;;;;;;5010661;28;20424;-78
2022/08/04 04:58:42;;;;;;;7.20;3.30;;;20.00;99.90;;;;;;4993203;28;20453;-78
2022/08/04 05:01:45;;;;;;;3.70;2.70;;;20.00;99.90;;;;;;4976715;28;20963;-79
2022/08/04 05:04:28;;;;;;;3.30;3.00;;;20.00;99.90;;;;;;5010321;28;21120;-78
2022/08/04 05:06:59;;;;;;;2.80;2.60;;;20.00;99.90;;;;;;4992338;28;20436;-79
2022/08/04 05:09:51;;;;;;;2.80;2.00;;;20.10;99.90;;;;;;5009809;28;20434;-79
2022/08/04 05:12:24;;;;;;;3.57;3.23;;;20.30;99.90;;;;;;4986078;28;20513;-78
2022/08/04 05:14:52;;;;;;;8.27;2.93;;;20.50;99.90;;;;;;4992185;28;20873;-78
2022/08/04 05:17:41;;;;;;;4.20;2.70;;;20.60;99.90;;;;;;5009754;28;20420;-78
2022/08/04 05:20:09;;;;;;;3.23;2.93;;;20.70;99.90;;;;;;5009313;28;20510;-78
2022/08/04 05:22:53;;;;;;;2.70;2.50;;;20.90;99.90;;;;;;5009616;28;20471;-77
2022/08/04 05:25:24;;;;;;;5.33;3.20;;;21.00;99.90;;;;;;4991901;28;20494;-78
2022/08/04 05:28:12;;;;;;;6.40;3.00;;;21.10;99.90;;;;;;4992157;28;20431;-78
2022/08/04 05:30:48;;;;;;;2.73;2.37;;;21.20;99.90;;;;;;5009381;28;20451;-78
2022/08/04 05:33:34;;;;;;;6.43;3.37;;;21.40;99.90;;;;;;4991816;28;20440;-78
2022/08/04 05:36:05;;;;;;;6.60;3.33;;;21.50;99.90;;;;;;4978408;28;20440;-77
2022/08/04 05:38:36;;;;;;;7.93;2.77;;;21.60;99.90;;;;;;5009321;28;20461;-78
2022/08/04 05:41:03;;;;;;;6.00;3.10;;;21.70;99.90;;;;;;4991597;28;20449;-78
2022/08/04 05:43:29;;;;;;;7.03;3.57;;;21.70;99.90;;;;;;5009302;28;20460;-78
2022/08/04 05:45:56;;;;;;;3.30;3.00;;;21.80;99.90;;;;;;4975354;28;20951;-78
2022/08/04 05:48:23;;;;;;;7.83;3.10;;;21.90;99.90;;;;;;4991653;28;20851;-78
2022/08/04 05:50:50;;;;;;;3.10;2.90;;;21.90;99.90;;;;;;4991709;28;20428;-78
2022/08/04 05:53:16;;;;;;;4.23;2.70;;;22.00;99.90;;;;;;4992012;28;20432;-78
2022/08/04 05:55:43;;;;;;;4.27;3.20;;;22.20;99.90;;;;;;5009671;28;20433;-78
2022/08/04 05:58:10;;;;;;;4.87;2.40;;;22.30;99.90;;;;;;4975878;28;20544;-78
2022/08/04 06:00:37;;;;;;;3.07;2.53;;;22.40;99.90;;;;;;5009611;28;20479;-78
2022/08/04 06:03:04;;;;;;;5.13;2.80;;;22.60;99.90;;;;;;4975695;28;20558;-78
2022/08/04 06:05:31;;;;;;;4.60;2.53;;;22.70;99.90;;;;;;4992635;28;20440;-78
2022/08/04 06:07:56;;;;;;;5.00;2.70;;;22.80;99.90;;;;;;5010142;28;20422;-79
2022/08/04 06:10:24;;;;;;;3.60;3.20;;;23.00;99.90;;;;;;4992969;28;20947;-79
2022/08/04 06:12:57;;;;;;;3.57;2.70;;;23.10;99.90;;;;;;4978577;28;20193;-79
2022/08/04 06:15:25;;;;;;;3.97;2.50;;;23.20;99.90;;;;;;4993918;28;20967;-80
2022/08/04 06:18:18;;;;;;;3.80;2.20;;;23.30;99.90;;;;;;4993636;28;20436;-80
2022/08/04 06:20:45;;;;;;;4.60;2.20;;;23.40;99.90;;;;;;4975211;28;20439;-79
2022/08/04 06:23:15;;;;;;;2.00;1.90;;;23.50;99.90;;;;;;5010688;28;20471;-79
2022/08/04 06:25:53;;;;;;;8.40;2.30;;;23.60;99.90;;;;;;4977737;28;20423;-80
2022/08/04 06:28:19;;;;;;;6.47;2.20;;;23.70;99.90;;;;;;5011161;28;20453;-80
2022/08/04 06:30:48;;;;;;;8.10;2.03;;;23.80;99.90;;;;;;4976171;28;21077;-80
2022/08/04 06:33:32;;;;;;;3.90;2.23;;;23.90;99.90;;;;;;5010369;28;20515;-79
2022/08/04 06:36:03;;;;;;;4.63;1.73;;;24.00;99.90;;;;;;5010186;28;20784;-80
2022/08/04 06:38:31;;;;;;;4.83;2.00;;;24.10;99.90;;;;;;4992361;28;20444;-79
2022/08/04 06:40:58;;;;;;;4.70;3.40;;;24.20;99.90;;;;;;5010382;28;20426;-79
2022/08/04 06:43:26;;;;;;;8.90;4.23;;;24.30;99.90;;;;;;4992241;28;20476;-79
2022/08/04 06:45:54;;;;;;;4.53;2.53;;;24.50;99.90;;;;;;4976096;28;20920;-79
2022/08/04 06:48:21;;;;;;;4.73;2.50;;;24.60;99.90;;;;;;4992801;28;20422;-79
2022/08/04 06:50:48;;;;;;;3.43;2.20;;;24.70;99.90;;;;;;4992831;28;20419;-79
2022/08/04 06:53:15;;;;;;;2.40;2.20;;;24.90;99.90;;;;;;5007413;28;20438;-80
2022/08/04 06:55:47;;;;;;;2.07;1.90;;;24.90;99.90;;;;;;5014067;28;20428;-80
2022/08/04 06:58:15;;;;;;;2.30;1.70;;;24.90;99.90;;;;;;5014319;28;20897;-80
2022/08/04 07:00:43;;;;;;;2.23;2.03;;;24.90;99.90;;;;;;4995846;28;20430;-78
2022/08/04 07:03:10;;;;;;;2.33;2.13;;;25.00;99.90;;;;;;4992727;28;20487;-80
2022/08/04 07:05:36;;;;;;;3.77;2.03;;;25.00;99.90;;;;;;5014444;28;20893;-79
2022/08/04 07:08:03;;;;;;;1.70;1.60;;;25.10;99.90;;;;;;4959116;28;20776;-80
2022/08/04 07:10:29;;;;;;;1.70;1.60;;;25.20;99.90;;;;;;5009917;28;20935;-80
2022/08/04 07:13:03;;;;;;;1.93;1.83;;;25.30;99.90;;;;;;5009323;28;20979;-80
2022/08/04 07:15:29;;;;;;;1.70;1.60;;;25.20;99.90;;;;;;4992778;28;20439;-79
2022/08/04 07:17:58;;;;;;;1.87;1.77;;;25.20;99.90;;;;;;4994929;28;20849;-80
2022/08/04 07:20:24;;;;;;;3.80;1.90;;;25.30;99.90;;;;;;4975937;28;20467;-80
2022/08/04 07:22:50;;;;;;;2.40;2.17;;;25.30;99.90;;;;;;5010280;28;20481;-80
2022/08/04 07:25:17;;;;;;;1.80;1.70;;;25.40;99.90;;;;;;5010049;28;20422;-80
2022/08/04 07:27:43;;;;;;;3.40;1.70;;;25.50;99.90;;;;;;4992058;28;20427;-80
2022/08/04 07:30:09;;;;;;;2.80;1.90;;;25.60;99.90;;;;;;4992113;28;20850;-80
2022/08/04 07:32:37;;;;;;;2.07;1.87;;;25.60;99.90;;;;;;5009492;28;20658;-79
2022/08/04 07:35:04;;;;;;;2.50;2.10;;;25.70;99.90;;;;;;5009252;28;20432;-80
2022/08/04 07:37:31;;;;;;;2.27;2.07;;;25.70;99.90;;;;;;4991612;28;20428;-80
2022/08/04 07:39:57;;;;;;;2.60;2.23;;;25.70;99.90;;;;;;4991858;28;20823;-80
2022/08/04 07:42:23;;;;;;;1.93;1.73;;;25.70;99.90;;;;;;4992547;28;20474;-79
2022/08/04 07:44:49;;;;;;;2.20;2.00;;;25.80;99.90;;;;;;4977029;28;20283;-80
2022/08/04 07:47:14;;;;;;;5.90;2.57;;;25.90;99.90;;;;;;5009375;28;20499;-79
2022/08/04 07:49:41;;;;;;;3.77;2.30;;;25.90;99.90;;;;;;4975252;28;20211;-80
2022/08/04 07:52:07;;;;;;;2.13;1.93;;;25.90;99.90;;;;;;4991678;28;20223;-80
2022/08/04 07:54:34;;;;;;;3.17;1.90;;;26.00;99.90;;;;;;5009105;28;20511;-80
2022/08/04 07:57:00;;;;;;;2.13;1.90;;;26.00;99.90;;;;;;5008959;28;20458;-79
2022/08/04 07:59:26;;;;;;;2.27;2.07;;;26.10;99.90;;;;;;4991086;28;20852;-79
2022/08/04 08:01:53;;;;;;;3.50;2.17;;;26.20;99.90;;;;;;5008871;28;20299;-79
2022/08/04 08:04:19;;;;;;;2.20;2.00;;;26.20;99.90;;;;;;5008681;28;20566;-79
2022/08/04 08:06:45;;;;;;;2.90;2.03;;;26.30;99.90;;;;;;4990684;28;20432;-80
2022/08/04 08:09:17;;;;;;;2.43;2.23;;;26.30;99.90;;;;;;4990563;28;21016;-79
2022/08/04 08:11:46;;;;;;;2.30;2.03;;;26.40;99.90;;;;;;5009100;28;20435;-79
2022/08/04 08:14:12;;;;;;;2.60;2.00;;;26.50;99.90;;;;;;5008719;28;20422;-79
2022/08/04 08:16:37;;;;;;;2.20;1.60;;;26.60;99.90;;;;;;4991330;28;20420;-79
2022/08/04 08:19:04;;;;;;;1.80;1.70;;;26.70;99.90;;;;;;4991022;28;20987;-79
2022/08/04 08:21:30;;;;;;;4.27;1.83;;;26.90;99.90;;;;;;4991061;28;20700;-79
2022/08/04 08:23:56;;;;;;;1.80;1.70;;;26.90;99.90;;;;;;4991488;28;20839;-81
2022/08/04 08:26:22;;;;;;;2.03;1.90;;;27.00;99.30;;;;;;4992435;28;20424;-79
2022/08/04 08:28:48;;;;;;;3.30;2.10;;;27.10;99.80;;;;;;4991650;28;20545;-79
2022/08/04 08:31:13;;;;;;;3.00;2.03;;;27.30;99.60;;;;;;5009630;28;20181;-79
2022/08/04 08:33:40;;;;;;;1.97;1.70;;;27.40;99.00;;;;;;4991098;28;20268;-78
2022/08/04 08:36:12;;;;;;;2.03;1.93;;;27.50;99.90;;;;;;5007417;28;20566;-79
2022/08/04 08:38:44;;;;;;;4.23;1.53;;;27.60;99.70;;;;;;4990018;28;20466;-79
2022/08/04 08:41:48;;;;;;;2.57;1.73;;;27.70;99.90;;;;;;4990108;28;20977;-78
2022/08/04 08:44:34;;;;;;;6.73;2.20;;;27.90;99.90;;;;;;4960107;28;20505;-79
2022/08/04 08:47:18;;;;;;;3.00;2.43;;;28.00;99.10;;;;;;5010345;28;20412;-78
2022/08/04 08:49:47;;;;;;;1.97;1.87;;;28.10;99.90;;;;;;5011183;28;20809;-78
2022/08/04 08:52:38;;;;;;;6.03;2.10;;;28.30;99.90;;;;;;5010806;28;20415;-79
2022/08/04 08:55:30;;;;;;;2.13;1.90;;;28.50;99.10;;;;;;4993311;28;20415;-78
2022/08/04 08:58:17;;;;;;;3.73;2.17;;;28.70;98.70;;;;;;5011193;28;20400;-78
2022/08/04 09:01:00;;;;;;;7.53;2.30;;;28.80;99.40;;;;;;4993550;28;20792;-79
2022/08/04 09:03:58;;;;;;;3.93;2.40;;;28.90;97.30;;;;;;5010725;28;20980;-78
2022/08/04 09:06:37;;;;;;;5.53;2.47;;;29.10;97.60;;;;;;5010853;28;20443;-78
2022/08/04 09:09:10;;;;;;;4.40;1.70;;;29.30;96.40;;;;;;4993181;28;20481;-79
2022/08/04 09:11:59;;;;;;;5.43;2.20;;;29.50;96.60;;;;;;4993248;28;20466;-79
2022/08/04 09:14:51;;;;;;;3.20;2.40;;;29.70;96.50;;;;;;4982515;28;20427;-79
2022/08/04 09:17:40;;;;;;;5.80;2.90;;;29.80;96.20;;;;;;4993568;28;20734;-79
2022/08/04 09:20:13;;;;;;;6.93;2.20;;;30.00;96.50;;;;;;5011016;28;20455;-79
2022/08/04 09:23:25;;;;;;;3.47;2.40;;;30.20;96.50;;;;;;5010792;28;20551;-79
2022/08/04 09:26:29;;;;;;;3.00;2.10;;;30.30;95.80;;;;;;4989178;28;20553;-79
2022/08/04 09:29:16;;;;;;;2.40;1.97;;;30.60;94.00;;;;;;4992931;28;20473;-79
2022/08/04 09:31:55;;;;;;;2.90;2.67;;;30.80;93.00;;;;;;5015358;28;20443;-78
2022/08/04 09:34:34;;;;;;;5.73;2.10;;;31.00;92.80;;;;;;4997918;28;20424;-79
2022/08/04 09:37:11;;;;;;;2.33;2.17;;;31.20;92.30;;;;;;4998299;28;20428;-78
2022/08/04 09:40:22;;;;;;;2.37;2.10;;;31.30;91.30;;;;;;5017553;28;20507;-78
2022/08/04 09:42:56;;;;;;;2.67;2.30;;;31.60;91.10;;;;;;4997905;28;20463;-79
2022/08/04 09:45:22;;;;;;;3.20;2.20;;;31.70;90.30;;;;;;5016569;28;20411;-78
2022/08/04 09:48:20;;;;;;;2.63;2.47;;;31.90;90.50;;;;;;5010923;28;20435;-79
2022/08/04 09:50:56;;;;;;;3.93;2.30;;;31.90;91.10;;;;;;4968599;28;20838;-78
2022/08/04 09:53:40;;;;;;;5.17;2.27;;;32.10;88.00;;;;;;4991921;28;20428;-78
2022/08/04 09:56:13;;;;;;;3.97;2.10;;;32.20;90.50;;;;;;5009840;28;20408;-77
2022/08/04 09:58:48;;;;;;;3.10;2.30;;;32.40;90.00;;;;;;4990699;28;20447;-78
2022/08/04 10:01:17;;;;;;;4.60;2.20;;;32.50;85.40;;;;;;5009546;28;20420;-78
2022/08/04 10:03:49;;;;;;;6.67;2.17;;;32.60;86.10;;;;;;4991780;28;20496;-77
2022/08/04 10:06:18;;;;;;;2.70;2.20;;;32.80;84.30;;;;;;5010455;28;20436;-78
2022/08/04 10:09:33;;;;;;;2.90;2.00;;;32.90;86.50;;;;;;5010980;28;20443;-79
2022/08/04 10:12:17;;;;;;;2.90;2.27;;;33.10;82.40;;;;;;5005348;28;20432;-78
2022/08/04 10:15:06;;;;;;;2.07;1.97;;;33.20;79.70;;;;;;4991578;28;20424;-79
2022/08/04 10:18:12;;;;;;;3.80;2.13;;;33.30;78.60;;;;;;5009701;28;20883;-78
2022/08/04 10:20:51;;;;;;;6.20;2.10;;;33.50;81.80;;;;;;5009341;28;20467;-79
2022/08/04 10:23:16;;;;;;;4.43;2.40;;;33.60;81.40;;;;;;4991427;28;20471;-78
2022/08/04 10:26:19;;;;;;;4.50;2.07;;;33.70;80.70;;;;;;4991560;28;20482;-78
2022/08/04 10:29:04;;;;;;;2.33;2.10;;;33.80;76.40;;;;;;4991885;28;20569;-78
2022/08/04 10:31:35;;;;;;;2.70;2.00;;;33.90;74.70;;;;;;4991859;28;21093;-78
2022/08/04 10:34:10;;;;;;;3.03;2.10;;;33.90;74.50;;;;;;4991889;28;20499;-78
2022/08/04 10:36:46;;;;;;;3.03;1.80;;;34.00;73.90;;;;;;5009402;28;20404;-78
2022/08/04 10:39:18;;;;;;;3.67;2.10;;;34.10;72.00;;;;;;4991174;28;20443;-78
2022/08/04 10:42:23;;;;;;;3.00;2.00;;;34.20;70.20;;;;;;4991972;28;20415;-78
2022/08/04 10:45:04;;;;;;;2.60;1.70;;;34.30;69.40;;;;;;4948328;29;20497;-78
2022/08/04 10:47:36;;;;;;;2.30;1.50;;;34.30;66.00;;;;;;4987429;28;20427;-78
2022/08/04 10:50:02;;;;;;;2.63;2.43;;;34.40;62.60;;;;;;5009492;28;20428;-78
2022/08/04 10:52:57;;;;;;;3.03;1.97;;;34.50;66.70;;;;;;5009352;28;20427;-79
2022/08/04 10:55:35;;;;;;;6.63;1.57;;;34.70;65.40;;;;;;4990830;28;20464;-78
2022/08/04 10:58:08;;;;;;;1.60;1.50;;;34.70;61.80;;;;;;5009416;28;20454;-79
2022/08/04 11:00:37;;;;;;;1.97;1.87;;;34.80;58.70;;;;;;5015994;28;20467;-80
2022/08/04 11:03:07;;;;;;;1.70;1.60;;;34.80;58.40;;;;;;5016017;28;20455;-78
2022/08/04 11:05:49;;;;;;;2.00;1.47;;;34.90;57.90;;;;;;5016054;28;20447;-79
2022/08/04 11:08:35;;;;;;;1.90;1.80;;;35.00;55.80;;;;;;5015160;28;20515;-79
2022/08/04 11:11:32;;;;;;;3.50;1.60;;;35.10;58.40;;;;;;5000530;28;20956;-79
2022/08/04 11:14:10;;;;;;;1.40;1.30;;;35.10;55.80;;;;;;4997288;28;20419;-78
2022/08/04 11:16:46;;;;;;;1.70;1.60;;;35.10;55.70;;;;;;5016442;28;20416;-79
2022/08/04 11:19:14;;;;;;;8.43;1.57;;;35.20;54.20;;;;;;4998892;28;20443;-78
2022/08/04 11:21:44;;;;;;;3.13;1.90;;;35.30;54.90;;;;;;5015721;28;20409;-79
2022/08/04 11:24:20;;;;;;;2.47;1.60;;;35.40;54.90;;;;;;4998444;28;20479;-79
2022/08/04 11:26:58;;;;;;;1.90;1.80;;;35.30;54.40;;;;;;5015482;28;20427;-79
2022/08/04 11:29:41;;;;;;;1.47;1.20;;;35.30;55.80;;;;;;4997349;28;20515;-78
2022/08/04 11:32:16;;;;;;;1.77;1.67;;;35.40;56.20;;;;;;4995796;28;20491;-78
2022/08/04 11:34:48;;;;;;;1.70;1.60;;;35.50;53.00;;;;;;5012526;28;20422;-78
2022/08/04 11:37:23;;;;;;;1.53;1.43;;;35.50;52.70;;;;;;5012677;28;20416;-78
2022/08/04 11:40:06;;;;;;;5.10;2.00;;;35.50;53.20;;;;;;4994472;28;20428;-78
2022/08/04 11:42:41;;;;;;;1.83;1.73;;;35.50;51.90;;;;;;5011279;28;20463;-78
2022/08/04 11:45:15;;;;;;;3.03;1.53;;;35.50;52.50;;;;;;5010421;28;20554;-78
2022/08/04 11:47:50;;;;;;;1.70;1.60;;;35.50;51.60;;;;;;4991906;28;20952;-78
2022/08/04 11:50:40;;;;;;;5.00;1.20;;;35.60;51.60;;;;;;4996959;28;20471;-79
2022/08/04 11:53:07;;;;;;;1.60;1.50;;;35.70;52.50;;;;;;5016098;28;20432;-79
2022/08/04 11:55:34;;;;;;;1.77;1.67;;;35.70;52.00;;;;;;5017471;28;20505;-78
2022/08/04 11:58:00;;;;;;;1.77;1.43;;;35.60;50.20;;;;;;5017846;28;20416;-79
2022/08/04 12:00:30;;;;;;;9.30;1.80;;;35.60;51.30;;;;;;4983886;28;20980;-79
2022/08/04 12:03:24;;;;;;;2.57;2.37;;;35.70;53.50;;;;;;4999709;28;20347;-78
2022/08/04 12:06:14;;;;;;;2.03;1.80;;;35.80;53.10;;;;;;5019624;28;20458;-78
2022/08/04 12:08:53;;;;;;;1.40;1.30;;;35.80;53.30;;;;;;5017883;28;20947;-78
2022/08/04 12:11:50;;;;;;;1.83;1.60;;;35.80;53.70;;;;;;4999605;28;20420;-79
2022/08/04 12:14:38;;;;;;;2.40;1.50;;;35.90;51.30;;;;;;4993354;28;20461;-79
2022/08/04 12:17:05;;;;;;;2.87;1.90;;;35.70;51.20;;;;;;5016801;28;20419;-78
2022/08/04 12:19:54;;;;;;;1.53;1.43;;;35.80;53.40;;;;;;5016280;28;20432;-79
2022/08/04 12:22:26;;;;;;;1.80;1.70;;;35.80;52.60;;;;;;5001514;28;20412;-78
2022/08/04 12:25:07;;;;;;;3.93;1.70;;;35.90;51.80;;;;;;5019376;28;20420;-77
2022/08/04 12:27:44;;;;;;;1.70;1.60;;;35.90;52.60;;;;;;5001477;28;20416;-77
2022/08/04 12:30:11;;;;;;;1.70;1.60;;;35.80;49.90;;;;;;5018330;28;20436;-77
2022/08/04 12:33:02;;;;;;;1.77;1.50;;;35.90;49.60;;;;;;5002006;28;20423;-78
2022/08/04 12:36:11;;;;;;;1.60;1.50;;;35.90;51.30;;;;;;5020367;28;20507;-77
2022/08/04 12:38:46;;;;;;;4.20;2.23;;;35.90;53.30;;;;;;4958254;29;20461;-77
2022/08/04 12:41:14;;;;;;;1.73;1.63;;;35.90;50.10;;;;;;5010821;28;20902;-77
2022/08/04 12:43:45;;;;;;;6.93;2.00;;;36.00;50.90;;;;;;4993637;28;20563;-78
2022/08/04 12:46:25;;;;;;;2.90;2.07;;;35.90;51.30;;;;;;5011590;28;20418;-77
2022/08/04 12:48:51;;;;;;;2.20;2.00;;;35.90;49.10;;;;;;4993717;28;20439;-77
2022/08/04 12:51:19;;;;;;;3.77;2.03;;;36.00;49.70;;;;;;4993740;28;20971;-78
2022/08/04 12:53:46;;;;;;;4.33;1.87;;;36.00;48.30;;;;;;5011323;28;20455;-78
2022/08/04 12:56:13;;;;;;;3.10;1.70;;;35.90;48.60;;;;;;5011223;28;20869;-78
2022/08/04 12:58:52;;;;;;;4.37;2.33;;;35.90;49.30;;;;;;5011033;28;20432;-77
2022/08/04 13:01:23;;;;;;;1.90;1.80;;;35.90;48.40;;;;;;4993320;28;20474;-78
2022/08/04 13:03:48;;;;;;;2.43;1.70;;;35.90;49.50;;;;;;4993234;28;21053;-79
2022/08/04 13:06:15;;;;;;;1.83;1.73;;;35.90;49.60;;;;;;5010883;28;20436;-78
2022/08/04 13:08:44;;;;;;;2.37;2.17;;;35.80;50.80;;;;;;5011012;28;20200;-78
2022/08/04 13:11:10;;;;;;;3.50;1.73;;;35.80;51.60;;;;;;5011206;28;20471;-77
2022/08/04 13:13:38;;;;;;;2.23;1.80;;;35.80;51.40;;;;;;4993205;28;20432;-77
2022/08/04 13:16:07;;;;;;;5.73;2.00;;;35.80;49.80;;;;;;5010816;28;20424;-78
2022/08/04 13:18:38;;;;;;;6.80;1.87;;;35.80;48.30;;;;;;4993169;28;20726;-77
2022/08/04 13:21:15;;;;;;;6.10;1.80;;;35.70;49.80;;;;;;4993029;28;20805;-77
2022/08/04 13:23:45;;;;;;;1.70;1.60;;;35.80;49.50;;;;;;5010587;28;20483;-77
2022/08/04 13:26:12;;;;;;;2.40;1.97;;;35.80;48.20;;;;;;5010619;28;20423;-77
2022/08/04 13:28:40;;;;;;;2.30;2.10;;;35.60;48.80;;;;;;5011648;28;20440;-77
2022/08/04 13:31:10;;;;;;;2.50;1.87;;;35.70;50.60;;;;;;5009965;28;20515;-77
2022/08/04 13:33:37;;;;;;;2.30;1.90;;;35.80;50.10;;;;;;4992199;28;20431;-77